createdAt,value
2018-07-21T00:00:41.687Z,8.38
2018-07-21T00:02:42.278Z,7.34
2018-07-21T00:06:42.880Z,8.19
2018-07-21T00:12:43.509Z,9.03
2018-07-21T00:16:44.478Z,9.51
2018-07-21T00:22:45.001Z,10.68
2018-07-21T00:28:45.659Z,8.17
2018-07-21T00:32:46.323Z,9.3
2018-07-21T00:38:46.969Z,9.4
2018-07-21T00:42:47.541Z,9.39
2018-07-21T00:48:48.160Z,8.06
2018-07-21T00:54:48.744Z,9.94
2018-07-21T00:58:49.280Z,8.75
2018-07-21T01:04:50.022Z,8.77
2018-07-21T01:08:50.591Z,8.24
2018-07-21T01:10:51.184Z,9.47
2018-07-21T01:14:51.891Z,8.96
2018-07-21T01:20:52.438Z,8.2
2018-07-21T01:24:53.145Z,9.31
2018-07-21T01:30:53.849Z,8.3
2018-07-21T01:34:54.502Z,8.87
2018-07-21T01:36:55.064Z,8.42
2018-07-21T01:40:55.658Z,9.14
2018-07-21T01:46:56.352Z,8.09
2018-07-21T01:50:56.995Z,9.4
2018-07-21T01:56:57.527Z,9.54
2018-07-21T02:00:58.150Z,9.05
2018-07-21T02:02:58.787Z,10.13
2018-07-21T02:06:59.414Z,13.28
2018-07-21T02:12:59.997Z,10.5
2018-07-21T02:17:01.047Z,8.86
2018-07-21T02:23:01.672Z,7.79
2018-07-21T02:29:03.419Z,7.79
2018-07-21T02:33:03.958Z,9.23
2018-07-21T02:39:04.730Z,8.9
2018-07-21T02:43:05.305Z,9.93
2018-07-21T02:49:05.935Z,8.97
2018-07-21T02:55:12.112Z,8.25
2018-07-21T02:59:12.725Z,9.7
2018-07-21T03:05:13.378Z,7.74
2018-07-21T03:09:14.019Z,8.07
2018-07-21T03:15:15.431Z,9.1
2018-07-21T03:21:16.150Z,7.97
2018-07-21T03:25:16.847Z,9.52
2018-07-21T03:31:17.471Z,9.14
2018-07-21T03:35:18.112Z,8.42
2018-07-21T03:37:18.685Z,8.68
2018-07-21T03:41:19.259Z,8.69
2018-07-21T03:47:19.990Z,9.95
2018-07-21T03:51:20.635Z,9.81
2018-07-21T03:57:21.219Z,9.26
2018-07-21T04:01:22.294Z,9.89
2018-07-21T04:03:22.856Z,10.76
2018-07-21T04:07:23.578Z,9.81
2018-07-21T04:13:24.089Z,8.89
2018-07-21T04:17:24.817Z,9.18
2018-07-21T04:23:25.442Z,10.07
2018-07-21T04:27:26.169Z,9.4
2018-07-21T04:29:26.788Z,9.16
2018-07-21T04:33:27.460Z,9.93
2018-07-21T04:39:28.143Z,9.56
2018-07-21T04:43:28.665Z,9.85
2018-07-21T04:49:29.209Z,11.46
2018-07-21T04:55:30.620Z,10.16
2018-07-21T04:59:31.451Z,10.36
2018-07-21T05:05:32.011Z,8.52
2018-07-21T05:09:32.616Z,8.93
2018-07-21T05:15:38.771Z,8.56
2018-07-21T05:21:39.366Z,8.84
2018-07-21T05:25:40.045Z,9.63
2018-07-21T05:31:40.896Z,8.94
2018-07-21T05:35:41.489Z,8.86
2018-07-21T05:41:47.653Z,9.93
2018-07-21T05:47:48.257Z,8.89
2018-07-21T05:51:48.931Z,10.26
2018-07-21T05:57:49.504Z,8.94
2018-07-21T06:01:50.186Z,10.8
2018-07-21T06:07:50.901Z,7.93
2018-07-21T06:13:51.525Z,7.78
2018-07-21T06:17:52.083Z,9.1
2018-07-21T06:23:52.788Z,8.21
2018-07-21T06:27:53.351Z,8.38
2018-07-21T06:29:53.961Z,9.65
2018-07-21T06:33:54.563Z,8.87
2018-07-21T06:39:55.255Z,11.09
2018-07-21T06:43:55.947Z,9.94
2018-07-21T06:49:56.583Z,8.27
2018-07-21T06:53:57.190Z,8.35
2018-07-21T06:55:57.760Z,7.61
2018-07-21T06:59:58.310Z,8.66
2018-07-21T07:05:58.888Z,8.44
2018-07-21T07:09:59.489Z,9.34
2018-07-21T07:16:00.194Z,9.9
2018-07-21T07:20:02.270Z,11.47
2018-07-21T07:22:02.886Z,9.61
2018-07-21T07:26:03.585Z,9.93
2018-07-21T07:32:04.559Z,8.16
2018-07-21T07:36:05.223Z,8.88
2018-07-21T07:42:05.932Z,10.11
2018-07-21T07:48:06.637Z,11.39
2018-07-21T07:52:07.240Z,10.68
2018-07-21T07:58:07.900Z,9.44
2018-07-21T08:02:08.541Z,10.73
2018-07-21T08:08:09.136Z,11.73
2018-07-21T08:14:09.874Z,8.09
2018-07-21T08:18:10.478Z,11.38
2018-07-21T08:24:11.196Z,9.79
2018-07-21T08:28:11.806Z,8.47
2018-07-21T08:30:12.890Z,8.93
2018-07-21T08:34:13.459Z,9.68
2018-07-21T08:40:14.076Z,8.13
2018-07-21T08:44:14.658Z,8.68
2018-07-21T08:50:15.350Z,7.66
2018-07-21T08:54:16.019Z,10.21
2018-07-21T08:56:16.697Z,8.71
2018-07-21T09:00:17.561Z,9.89
2018-07-21T09:06:18.195Z,8.25
2018-07-21T09:10:18.856Z,8.95
2018-07-21T09:16:19.545Z,9.09
2018-07-21T09:20:20.142Z,10.08
2018-07-21T09:22:20.711Z,7.3
2018-07-21T09:26:21.413Z,8.04
2018-07-21T09:32:22.026Z,7.41
2018-07-21T09:36:22.610Z,8.16
2018-07-21T09:42:23.213Z,7.86
2018-07-21T09:48:23.817Z,7.86
2018-07-21T09:52:24.438Z,8.39
2018-07-21T09:58:25.162Z,7.41
2018-07-21T10:02:25.790Z,8.53
2018-07-21T10:08:26.386Z,7.39
2018-07-21T10:14:27.079Z,5.31
2018-07-21T10:18:27.890Z,6.62
2018-07-21T10:24:28.524Z,5.54
2018-07-21T10:28:29.174Z,6.27
2018-07-21T10:30:30.314Z,5.24
2018-07-21T10:34:31.066Z,5.25
2018-07-21T10:40:31.665Z,5.48
2018-07-21T10:44:32.247Z,5.69
2018-07-21T10:50:32.768Z,6.39
2018-07-21T10:54:33.410Z,5.72
2018-07-21T10:56:33.948Z,6.94
2018-07-21T11:00:34.930Z,6.77
2018-07-21T11:06:35.494Z,5.88
2018-07-21T11:10:36.212Z,6.35
2018-07-21T11:16:36.771Z,5.33
2018-07-21T11:22:37.462Z,6.72
2018-07-21T11:26:38.007Z,5.89
2018-07-21T11:32:38.601Z,6.88
2018-07-21T11:36:39.208Z,6.84
2018-07-21T11:42:39.794Z,6.56
2018-07-21T11:48:40.450Z,6.82
2018-07-21T11:52:41.004Z,7.03
2018-07-21T11:58:41.655Z,8.63
2018-07-21T12:02:46.402Z,8.91
2018-07-21T12:14:44.030Z,6.9
2018-07-21T12:18:44.753Z,7.08
2018-07-21T12:24:45.240Z,5.93
2018-07-21T12:34:48.813Z,7.08
2018-07-21T12:40:49.525Z,7.34
2018-07-21T12:44:50.108Z,7.42
2018-07-21T12:50:50.702Z,7.23
2018-07-21T12:54:51.374Z,7.97
2018-07-21T12:56:52.079Z,8.19
2018-07-21T13:00:52.708Z,9.03
2018-07-21T13:06:53.293Z,8.55
2018-07-21T13:10:53.860Z,8.37
2018-07-21T13:16:54.541Z,8.67
2018-07-21T13:22:55.239Z,8.84
2018-07-21T13:26:55.910Z,8.09
2018-07-21T13:32:56.606Z,7.2
2018-07-21T13:36:57.372Z,8.14
2018-07-21T13:42:57.969Z,8.35
2018-07-21T13:48:58.595Z,7.37
2018-07-21T13:52:59.149Z,7.08
2018-07-21T13:58:59.823Z,6.95
2018-07-21T14:03:00.451Z,7.23
2018-07-21T14:05:01.181Z,8.23
2018-07-21T14:09:01.872Z,6.84
2018-07-21T14:15:02.573Z,6.17
2018-07-21T14:19:03.275Z,7.47
2018-07-21T14:19:03.303Z,7.47
2018-07-21T14:25:03.896Z,8.42
2018-07-21T14:29:04.509Z,7.92
2018-07-21T14:36:05.759Z,6.51
2018-07-21T14:40:06.245Z,8.06
2018-07-21T14:46:06.867Z,5.24
2018-07-21T14:50:07.559Z,8.29
2018-07-21T14:52:08.100Z,7.58
2018-07-21T14:56:08.724Z,8.41
2018-07-21T15:02:09.270Z,8.45
2018-07-21T15:06:09.872Z,7.33
2018-07-21T15:12:10.470Z,7.81
2018-07-21T15:16:11.069Z,9.49
2018-07-21T15:18:11.636Z,6.25
2018-07-21T15:22:12.260Z,7.22
2018-07-21T15:28:12.906Z,7.3
2018-07-21T15:32:13.475Z,7.27
2018-07-21T15:38:14.065Z,6.13
2018-07-21T15:44:14.695Z,5.05
2018-07-21T15:48:15.351Z,6.11
2018-07-21T15:54:16.032Z,5.75
2018-07-21T15:58:16.627Z,6.67
2018-07-21T16:04:17.243Z,5.71
2018-07-21T16:10:17.900Z,6.6
2018-07-21T16:14:18.575Z,6.61
2018-07-21T16:20:19.288Z,6.44
2018-07-21T16:24:19.879Z,7.5
2018-07-21T16:26:20.480Z,7.31
2018-07-21T16:30:21.543Z,6.83
2018-07-21T16:36:22.124Z,5.6
2018-07-21T16:40:22.959Z,5.9
2018-07-21T16:46:23.519Z,7.04
2018-07-21T16:50:24.120Z,7.72
2018-07-21T16:52:24.702Z,8.94
2018-07-21T16:56:25.343Z,10.37
2018-07-21T17:02:26.019Z,8.11
2018-07-21T17:06:26.636Z,7.68
2018-07-21T17:12:27.260Z,7.34
2018-07-21T17:18:27.944Z,7.44
2018-07-21T17:22:28.538Z,7.81
2018-07-21T17:28:29.096Z,6.28
2018-07-21T17:32:29.742Z,7.2
2018-07-21T17:38:30.515Z,8.88
2018-07-21T17:44:31.247Z,5.94
2018-07-21T17:48:31.799Z,7.72
2018-07-21T17:54:32.460Z,8.56
2018-07-21T17:58:33.057Z,7.2
2018-07-21T18:00:33.691Z,6.13
2018-07-21T18:04:34.288Z,7.24
2018-07-21T18:10:35.018Z,7.09
2018-07-21T18:14:35.557Z,7.33
2018-07-21T18:14:35.581Z,7.33
2018-07-21T18:20:36.122Z,7.58
2018-07-21T18:24:36.872Z,7.1
2018-07-21T18:26:37.401Z,6.76
2018-07-21T18:30:38.074Z,7.86
2018-07-21T18:36:38.665Z,9.33
2018-07-21T18:40:39.272Z,7.32
2018-07-21T18:46:39.946Z,7.96
2018-07-21T18:52:40.685Z,7.65
2018-07-21T18:56:41.395Z,8.26
2018-07-21T19:02:42.109Z,7.28
2018-07-21T19:06:42.750Z,7.95
2018-07-21T19:12:43.318Z,7.81
2018-07-21T19:18:44.004Z,10.33
2018-07-21T19:22:44.632Z,9.85
2018-07-21T19:28:45.415Z,10.48
2018-07-21T19:32:46.055Z,9.02
2018-07-21T19:38:46.647Z,9.22
2018-07-21T19:44:47.166Z,6.93
2018-07-21T19:48:47.779Z,9.46
2018-07-21T19:54:48.357Z,7.57
2018-07-21T19:58:48.977Z,8.56
2018-07-21T20:00:49.599Z,9.71
2018-07-21T20:04:50.188Z,8.36
2018-07-21T20:10:50.775Z,7.13
2018-07-21T20:14:51.321Z,7.84
2018-07-21T20:20:51.973Z,9.78
2018-07-21T20:24:52.543Z,8.86
2018-07-21T20:26:53.181Z,7.77
2018-07-21T20:30:53.707Z,9.03
2018-07-21T20:36:54.311Z,7.69
2018-07-21T20:40:55.029Z,9.93
2018-07-21T20:46:55.694Z,6.7
2018-07-21T20:52:56.359Z,7.18
2018-07-21T20:56:56.922Z,7.97
2018-07-21T21:02:57.820Z,6.94
2018-07-21T21:06:58.690Z,8.14
2018-07-21T21:12:59.414Z,7.74
2018-07-21T21:19:00.026Z,8.79
2018-07-21T21:23:00.830Z,8.47
2018-07-21T21:29:01.584Z,8.11
2018-07-21T21:33:02.215Z,9.57
2018-07-21T21:35:02.776Z,8.36
2018-07-21T21:39:03.346Z,8.91
2018-07-21T21:45:03.929Z,7.95
2018-07-21T21:49:04.500Z,9.12
2018-07-21T21:55:05.195Z,8.56
2018-07-21T21:59:05.815Z,9.12
2018-07-21T22:01:06.357Z,8.34
2018-07-21T22:05:06.860Z,9.88
2018-07-21T22:11:07.458Z,8.14
2018-07-21T22:15:08.466Z,9.56
2018-07-21T22:21:09.088Z,8.57
2018-07-21T22:27:09.824Z,8.42
2018-07-21T22:31:10.310Z,10.95
2018-07-21T22:37:11.029Z,9.36
2018-07-21T22:41:11.615Z,11.2
2018-07-21T22:47:12.335Z,8.07
2018-07-21T22:53:12.992Z,7.72
2018-07-21T22:57:13.647Z,9.7
2018-07-21T23:03:14.311Z,7.69
2018-07-21T23:07:14.891Z,8.42
2018-07-21T23:09:15.434Z,8.43
2018-07-21T23:13:15.988Z,8.82
2018-07-21T23:19:16.765Z,8.79
2018-07-21T23:23:17.425Z,7.51
2018-07-21T23:29:18.094Z,9.6
2018-07-21T23:33:19.073Z,9.97
2018-07-21T23:35:24.406Z,8.73
2018-07-21T23:39:25.221Z,9.3
2018-07-21T23:45:26.304Z,8.12
2018-07-21T23:49:26.892Z,8.31
2018-07-21T23:55:27.573Z,8.37
2018-07-21T23:59:28.217Z,8.75
